sensor_id;sensor_type;location;lat;lon;timestamp;P1;durP1;ratioP1;P2;durP2;ratioP2
77466;SDS011;66564;42.482;25.548;2023-10-19T00:00:30;5.00;;;3.30;;
77466;SDS011;66564;42.482;25.548;2023-10-19T00:02:59;7.63;;;3.55;;
77466;SDS011;66564;42.482;25.548;2023-10-19T00:05:28;9.75;;;3.78;;
77466;SDS011;66564;42.482;25.548;2023-10-19T00:07:59;6.45;;;3.35;;
77466;SDS011;66564;42.482;25.548;2023-10-19T00:10:30;5.78;;;3.60;;
77466;SDS011;66564;42.482;25.548;2023-10-19T00:13:00;5.80;;;4.07;;
77466;SDS011;66564;42.482;25.548;2023-10-19T00:15:33;5.97;;;4.00;;
77466;SDS011;66564;42.482;25.548;2023-10-19T00:18:06;6.63;;;3.92;;
77466;SDS011;66564;42.482;25.548;2023-10-19T00:20:53;15.52;;;4.20;;
77466;SDS011;66564;42.482;25.548;2023-10-19T00:23:36;6.57;;;3.90;;
77466;SDS011;66564;42.482;25.548;2023-10-19T00:26:04;8.10;;;3.60;;
77466;SDS011;66564;42.482;25.548;2023-10-19T00:28:34;6.90;;;4.32;;
77466;SDS011;66564;42.482;25.548;2023-10-19T00:31:01;6.82;;;3.70;;
77466;SDS011;66564;42.482;25.548;2023-10-19T00:33:32;6.35;;;3.75;;
77466;SDS011;66564;42.482;25.548;2023-10-19T00:36:01;7.40;;;3.80;;
77466;SDS011;66564;42.482;25.548;2023-10-19T00:38:36;4.63;;;3.72;;
77466;SDS011;66564;42.482;25.548;2023-10-19T00:41:26;10.43;;;3.67;;
77466;SDS011;66564;42.482;25.548;2023-10-19T00:43:55;7.97;;;3.65;;
77466;SDS011;66564;42.482;25.548;2023-10-19T00:46:41;5.70;;;3.65;;
77466;SDS011;66564;42.482;25.548;2023-10-19T00:49:07;4.45;;;3.00;;
77466;SDS011;66564;42.482;25.548;2023-10-19T00:51:44;4.28;;;3.38;;
77466;SDS011;66564;42.482;25.548;2023-10-19T00:56:58;5.38;;;3.80;;
77466;SDS011;66564;42.482;25.548;2023-10-19T00:59:33;4.40;;;3.00;;
77466;SDS011;66564;42.482;25.548;2023-10-19T01:02:12;4.75;;;3.65;;
77466;SDS011;66564;42.482;25.548;2023-10-19T01:04:44;13.63;;;4.38;;
77466;SDS011;66564;42.482;25.548;2023-10-19T01:07:15;5.88;;;3.33;;
77466;SDS011;66564;42.482;25.548;2023-10-19T01:09:48;7.18;;;4.03;;
77466;SDS011;66564;42.482;25.548;2023-10-19T01:12:18;4.93;;;3.40;;
77466;SDS011;66564;42.482;25.548;2023-10-19T01:15:09;6.88;;;4.13;;
77466;SDS011;66564;42.482;25.548;2023-10-19T01:17:46;9.90;;;3.47;;
77466;SDS011;66564;42.482;25.548;2023-10-19T01:20:21;6.30;;;3.00;;
77466;SDS011;66564;42.482;25.548;2023-10-19T01:28:09;4.63;;;3.33;;
77466;SDS011;66564;42.482;25.548;2023-10-19T01:30:36;7.00;;;3.55;;
77466;SDS011;66564;42.482;25.548;2023-10-19T01:33:03;4.60;;;3.05;;
77466;SDS011;66564;42.482;25.548;2023-10-19T01:35:33;7.47;;;3.67;;
77466;SDS011;66564;42.482;25.548;2023-10-19T01:38:17;5.85;;;3.85;;
77466;SDS011;66564;42.482;25.548;2023-10-19T01:40:43;6.03;;;3.40;;
77466;SDS011;66564;42.482;25.548;2023-10-19T01:43:11;6.20;;;3.05;;
77466;SDS011;66564;42.482;25.548;2023-10-19T01:45:45;9.45;;;4.10;;
77466;SDS011;66564;42.482;25.548;2023-10-19T01:48:12;9.88;;;3.58;;
77466;SDS011;66564;42.482;25.548;2023-10-19T01:50:41;5.03;;;3.13;;
77466;SDS011;66564;42.482;25.548;2023-10-19T01:53:06;6.93;;;3.17;;
77466;SDS011;66564;42.482;25.548;2023-10-19T01:55:41;7.47;;;3.30;;
77466;SDS011;66564;42.482;25.548;2023-10-19T01:58:08;9.98;;;3.78;;
77466;SDS011;66564;42.482;25.548;2023-10-19T02:00:34;6.00;;;3.97;;
77466;SDS011;66564;42.482;25.548;2023-10-19T02:03:06;7.63;;;3.45;;
77466;SDS011;66564;42.482;25.548;2023-10-19T02:05:32;7.15;;;3.85;;
77466;SDS011;66564;42.482;25.548;2023-10-19T02:08:05;7.00;;;4.18;;
77466;SDS011;66564;42.482;25.548;2023-10-19T02:10:32;9.32;;;3.38;;
77466;SDS011;66564;42.482;25.548;2023-10-19T02:13:00;6.35;;;3.47;;
77466;SDS011;66564;42.482;25.548;2023-10-19T02:15:25;6.38;;;3.25;;
77466;SDS011;66564;42.482;25.548;2023-10-19T02:17:51;12.07;;;3.67;;
77466;SDS011;66564;42.482;25.548;2023-10-19T02:20:20;10.23;;;3.72;;
77466;SDS011;66564;42.482;25.548;2023-10-19T02:22:49;6.72;;;3.47;;
77466;SDS011;66564;42.482;25.548;2023-10-19T02:25:17;7.05;;;3.40;;
77466;SDS011;66564;42.482;25.548;2023-10-19T02:27:43;9.02;;;3.47;;
77466;SDS011;66564;42.482;25.548;2023-10-19T02:30:10;5.93;;;3.38;;
77466;SDS011;66564;42.482;25.548;2023-10-19T02:32:36;6.70;;;3.00;;
77466;SDS011;66564;42.482;25.548;2023-10-19T02:35:02;5.45;;;3.70;;
77466;SDS011;66564;42.482;25.548;2023-10-19T02:37:28;14.07;;;3.75;;
77466;SDS011;66564;42.482;25.548;2023-10-19T02:39:53;8.95;;;3.63;;
77466;SDS011;66564;42.482;25.548;2023-10-19T02:42:19;4.38;;;3.30;;
77466;SDS011;66564;42.482;25.548;2023-10-19T02:44:47;8.95;;;3.67;;
77466;SDS011;66564;42.482;25.548;2023-10-19T02:47:15;7.53;;;3.58;;
77466;SDS011;66564;42.482;25.548;2023-10-19T02:49:42;5.22;;;2.92;;
77466;SDS011;66564;42.482;25.548;2023-10-19T02:52:10;6.90;;;3.45;;
77466;SDS011;66564;42.482;25.548;2023-10-19T02:54:38;6.85;;;3.05;;
77466;SDS011;66564;42.482;25.548;2023-10-19T02:57:04;4.95;;;2.80;;
77466;SDS011;66564;42.482;25.548;2023-10-19T02:59:36;6.05;;;3.47;;
77466;SDS011;66564;42.482;25.548;2023-10-19T03:02:02;6.60;;;3.22;;
77466;SDS011;66564;42.482;25.548;2023-10-19T03:04:36;7.20;;;2.88;;
77466;SDS011;66564;42.482;25.548;2023-10-19T03:07:02;6.68;;;2.92;;
77466;SDS011;66564;42.482;25.548;2023-10-19T03:09:32;4.60;;;3.20;;
77466;SDS011;66564;42.482;25.548;2023-10-19T03:12:01;4.25;;;3.03;;
77466;SDS011;66564;42.482;25.548;2023-10-19T03:14:29;5.70;;;3.38;;
77466;SDS011;66564;42.482;25.548;2023-10-19T03:16:55;7.75;;;3.08;;
77466;SDS011;66564;42.482;25.548;2023-10-19T03:19:22;7.20;;;3.00;;
77466;SDS011;66564;42.482;25.548;2023-10-19T03:21:49;7.55;;;3.00;;
77466;SDS011;66564;42.482;25.548;2023-10-19T03:24:15;6.38;;;3.10;;
77466;SDS011;66564;42.482;25.548;2023-10-19T03:27:00;4.13;;;2.97;;
77466;SDS011;66564;42.482;25.548;2023-10-19T03:29:43;6.43;;;3.17;;
77466;SDS011;66564;42.482;25.548;2023-10-19T03:32:28;9.75;;;3.55;;
77466;SDS011;66564;42.482;25.548;2023-10-19T03:34:57;8.40;;;3.40;;
77466;SDS011;66564;42.482;25.548;2023-10-19T03:37:28;9.48;;;3.72;;
77466;SDS011;66564;42.482;25.548;2023-10-19T03:39:55;6.47;;;3.63;;
77466;SDS011;66564;42.482;25.548;2023-10-19T03:42:21;4.55;;;3.10;;
77466;SDS011;66564;42.482;25.548;2023-10-19T03:44:50;9.07;;;4.57;;
77466;SDS011;66564;42.482;25.548;2023-10-19T03:47:18;8.23;;;3.63;;
77466;SDS011;66564;42.482;25.548;2023-10-19T03:49:45;6.47;;;3.30;;
77466;SDS011;66564;42.482;25.548;2023-10-19T03:52:15;6.75;;;3.83;;
77466;SDS011;66564;42.482;25.548;2023-10-19T03:54:41;14.15;;;3.70;;
77466;SDS011;66564;42.482;25.548;2023-10-19T03:57:10;10.20;;;4.32;;
77466;SDS011;66564;42.482;25.548;2023-10-19T03:59:38;13.52;;;4.22;;
77466;SDS011;66564;42.482;25.548;2023-10-19T04:02:04;8.68;;;5.10;;
77466;SDS011;66564;42.482;25.548;2023-10-19T04:04:35;8.80;;;4.53;;
77466;SDS011;66564;42.482;25.548;2023-10-19T04:07:01;11.52;;;3.95;;
77466;SDS011;66564;42.482;25.548;2023-10-19T04:09:35;66.32;;;9.20;;
77466;SDS011;66564;42.482;25.548;2023-10-19T04:12:14;36.85;;;5.38;;
77466;SDS011;66564;42.482;25.548;2023-10-19T04:14:42;10.77;;;4.40;;
77466;SDS011;66564;42.482;25.548;2023-10-19T04:17:07;22.02;;;6.18;;
77466;SDS011;66564;42.482;25.548;2023-10-19T04:19:37;23.02;;;5.05;;
77466;SDS011;66564;42.482;25.548;2023-10-19T04:22:02;19.63;;;5.13;;
77466;SDS011;66564;42.482;25.548;2023-10-19T04:24:29;10.77;;;4.72;;
77466;SDS011;66564;42.482;25.548;2023-10-19T04:26:58;10.63;;;4.60;;
77466;SDS011;66564;42.482;25.548;2023-10-19T04:29:26;28.08;;;5.18;;
77466;SDS011;66564;42.482;25.548;2023-10-19T04:31:52;13.85;;;5.03;;
77466;SDS011;66564;42.482;25.548;2023-10-19T04:34:22;27.17;;;6.55;;
77466;SDS011;66564;42.482;25.548;2023-10-19T04:36:48;17.98;;;6.60;;
77466;SDS011;66564;42.482;25.548;2023-10-19T04:39:14;10.65;;;7.00;;
77466;SDS011;66564;42.482;25.548;2023-10-19T04:41:40;11.45;;;6.53;;
77466;SDS011;66564;42.482;25.548;2023-10-19T04:44:06;7.50;;;5.10;;
77466;SDS011;66564;42.482;25.548;2023-10-19T04:46:33;16.73;;;6.65;;
77466;SDS011;66564;42.482;25.548;2023-10-19T04:48:59;7.28;;;5.35;;
77466;SDS011;66564;42.482;25.548;2023-10-19T04:51:25;11.05;;;5.57;;
77466;SDS011;66564;42.482;25.548;2023-10-19T04:53:50;9.73;;;6.60;;
77466;SDS011;66564;42.482;25.548;2023-10-19T04:56:16;16.13;;;8.63;;
77466;SDS011;66564;42.482;25.548;2023-10-19T04:58:41;15.07;;;8.13;;
77466;SDS011;66564;42.482;25.548;2023-10-19T05:01:07;11.77;;;7.82;;
77466;SDS011;66564;42.482;25.548;2023-10-19T05:03:32;12.48;;;8.32;;
77466;SDS011;66564;42.482;25.548;2023-10-19T05:05:59;12.27;;;7.03;;
77466;SDS011;66564;42.482;25.548;2023-10-19T05:08:26;13.85;;;7.55;;
77466;SDS011;66564;42.482;25.548;2023-10-19T05:10:52;10.57;;;7.05;;
77466;SDS011;66564;42.482;25.548;2023-10-19T05:13:19;17.30;;;8.27;;
77466;SDS011;66564;42.482;25.548;2023-10-19T05:15:48;13.93;;;7.50;;
77466;SDS011;66564;42.482;25.548;2023-10-19T05:18:14;16.38;;;7.72;;
77466;SDS011;66564;42.482;25.548;2023-10-19T05:20:39;33.88;;;9.50;;
77466;SDS011;66564;42.482;25.548;2023-10-19T05:23:08;15.68;;;9.60;;
77466;SDS011;66564;42.482;25.548;2023-10-19T05:25:34;18.63;;;8.40;;
77466;SDS011;66564;42.482;25.548;2023-10-19T05:28:02;15.75;;;8.25;;
77466;SDS011;66564;42.482;25.548;2023-10-19T05:30:29;8.77;;;6.10;;
77466;SDS011;66564;42.482;25.548;2023-10-19T05:32:55;12.43;;;6.45;;
77466;SDS011;66564;42.482;25.548;2023-10-19T05:35:20;12.02;;;7.07;;
77466;SDS011;66564;42.482;25.548;2023-10-19T05:37:54;14.50;;;8.02;;
77466;SDS011;66564;42.482;25.548;2023-10-19T05:40:22;16.90;;;8.20;;
77466;SDS011;66564;42.482;25.548;2023-10-19T05:42:49;15.10;;;7.47;;
77466;SDS011;66564;42.482;25.548;2023-10-19T05:45:14;15.10;;;7.85;;
77466;SDS011;66564;42.482;25.548;2023-10-19T05:47:43;12.95;;;6.93;;
77466;SDS011;66564;42.482;25.548;2023-10-19T05:50:11;13.90;;;7.85;;
77466;SDS011;66564;42.482;25.548;2023-10-19T05:52:40;14.88;;;7.50;;
77466;SDS011;66564;42.482;25.548;2023-10-19T05:55:07;12.30;;;7.32;;
77466;SDS011;66564;42.482;25.548;2023-10-19T05:57:33;10.63;;;5.85;;
77466;SDS011;66564;42.482;25.548;2023-10-19T06:00:00;10.43;;;5.80;;
77466;SDS011;66564;42.482;25.548;2023-10-19T06:02:26;12.63;;;5.45;;
77466;SDS011;66564;42.482;25.548;2023-10-19T06:04:51;12.10;;;5.93;;
77466;SDS011;66564;42.482;25.548;2023-10-19T06:07:17;8.18;;;5.18;;
77466;SDS011;66564;42.482;25.548;2023-10-19T06:09:43;12.80;;;7.32;;
77466;SDS011;66564;42.482;25.548;2023-10-19T06:12:08;15.32;;;7.43;;
77466;SDS011;66564;42.482;25.548;2023-10-19T06:14:34;21.73;;;8.32;;
77466;SDS011;66564;42.482;25.548;2023-10-19T06:17:00;15.45;;;6.80;;
77466;SDS011;66564;42.482;25.548;2023-10-19T06:19:26;17.67;;;8.10;;
77466;SDS011;66564;42.482;25.548;2023-10-19T06:21:52;15.10;;;7.97;;
77466;SDS011;66564;42.482;25.548;2023-10-19T06:24:17;15.05;;;7.47;;
77466;SDS011;66564;42.482;25.548;2023-10-19T06:26:44;17.15;;;9.10;;
77466;SDS011;66564;42.482;25.548;2023-10-19T06:29:09;20.58;;;10.35;;
77466;SDS011;66564;42.482;25.548;2023-10-19T06:31:35;19.15;;;9.68;;
77466;SDS011;66564;42.482;25.548;2023-10-19T06:34:01;16.58;;;9.40;;
77466;SDS011;66564;42.482;25.548;2023-10-19T06:36:27;30.25;;;9.48;;
77466;SDS011;66564;42.482;25.548;2023-10-19T06:38:54;14.73;;;9.43;;
77466;SDS011;66564;42.482;25.548;2023-10-19T06:41:19;19.08;;;9.93;;
77466;SDS011;66564;42.482;25.548;2023-10-19T06:43:45;23.35;;;10.50;;
77466;SDS011;66564;42.482;25.548;2023-10-19T06:46:11;27.40;;;10.32;;
77466;SDS011;66564;42.482;25.548;2023-10-19T06:48:37;13.20;;;8.30;;
77466;SDS011;66564;42.482;25.548;2023-10-19T06:51:03;39.33;;;8.88;;
77466;SDS011;66564;42.482;25.548;2023-10-19T06:53:30;23.88;;;8.90;;
77466;SDS011;66564;42.482;25.548;2023-10-19T06:55:56;48.50;;;9.90;;
77466;SDS011;66564;42.482;25.548;2023-10-19T06:58:21;33.42;;;8.85;;
77466;SDS011;66564;42.482;25.548;2023-10-19T07:00:51;33.00;;;10.80;;
77466;SDS011;66564;42.482;25.548;2023-10-19T07:03:25;33.42;;;9.07;;
77466;SDS011;66564;42.482;25.548;2023-10-19T07:05:53;12.98;;;7.05;;
77466;SDS011;66564;42.482;25.548;2023-10-19T07:08:20;14.60;;;7.18;;
77466;SDS011;66564;42.482;25.548;2023-10-19T07:10:48;12.52;;;7.63;;
77466;SDS011;66564;42.482;25.548;2023-10-19T07:13:16;15.68;;;8.02;;
77466;SDS011;66564;42.482;25.548;2023-10-19T07:15:44;15.20;;;8.80;;
77466;SDS011;66564;42.482;25.548;2023-10-19T07:18:10;15.55;;;8.93;;
77466;SDS011;66564;42.482;25.548;2023-10-19T07:20:36;14.82;;;8.30;;
77466;SDS011;66564;42.482;25.548;2023-10-19T07:23:03;18.70;;;9.52;;
77466;SDS011;66564;42.482;25.548;2023-10-19T07:25:35;11.75;;;8.18;;
77466;SDS011;66564;42.482;25.548;2023-10-19T07:28:13;16.85;;;8.80;;
77466;SDS011;66564;42.482;25.548;2023-10-19T07:30:40;15.82;;;8.70;;
77466;SDS011;66564;42.482;25.548;2023-10-19T07:33:09;15.75;;;9.05;;
77466;SDS011;66564;42.482;25.548;2023-10-19T07:35:35;27.77;;;8.82;;
77466;SDS011;66564;42.482;25.548;2023-10-19T07:38:04;15.63;;;9.02;;
77466;SDS011;66564;42.482;25.548;2023-10-19T07:40:32;13.35;;;8.63;;
77466;SDS011;66564;42.482;25.548;2023-10-19T07:42:58;9.82;;;7.07;;
77466;SDS011;66564;42.482;25.548;2023-10-19T07:45:24;11.43;;;8.50;;
77466;SDS011;66564;42.482;25.548;2023-10-19T07:47:50;9.30;;;8.00;;
77466;SDS011;66564;42.482;25.548;2023-10-19T07:50:16;15.30;;;8.57;;
77466;SDS011;66564;42.482;25.548;2023-10-19T07:52:42;9.93;;;7.47;;
77466;SDS011;66564;42.482;25.548;2023-10-19T07:55:13;15.68;;;8.20;;
77466;SDS011;66564;42.482;25.548;2023-10-19T07:57:39;12.30;;;8.48;;
77466;SDS011;66564;42.482;25.548;2023-10-19T08:00:09;12.80;;;7.60;;
77466;SDS011;66564;42.482;25.548;2023-10-19T08:02:36;11.45;;;7.78;;
77466;SDS011;66564;42.482;25.548;2023-10-19T08:05:12;13.65;;;7.70;;
77466;SDS011;66564;42.482;25.548;2023-10-19T08:07:38;9.30;;;6.78;;
77466;SDS011;66564;42.482;25.548;2023-10-19T08:10:14;10.10;;;7.10;;
77466;SDS011;66564;42.482;25.548;2023-10-19T08:12:42;10.40;;;7.15;;
77466;SDS011;66564;42.482;25.548;2023-10-19T08:15:10;7.25;;;6.25;;
77466;SDS011;66564;42.482;25.548;2023-10-19T08:17:39;9.52;;;7.00;;
77466;SDS011;66564;42.482;25.548;2023-10-19T08:20:06;8.73;;;6.00;;
77466;SDS011;66564;42.482;25.548;2023-10-19T08:22:44;9.43;;;6.60;;
77466;SDS011;66564;42.482;25.548;2023-10-19T08:25:11;12.30;;;7.35;;
77466;SDS011;66564;42.482;25.548;2023-10-19T08:27:39;8.85;;;6.82;;
77466;SDS011;66564;42.482;25.548;2023-10-19T08:30:12;11.77;;;7.43;;
77466;SDS011;66564;42.482;25.548;2023-10-19T08:32:38;13.10;;;7.80;;
77466;SDS011;66564;42.482;25.548;2023-10-19T08:35:05;10.05;;;7.53;;
77466;SDS011;66564;42.482;25.548;2023-10-19T08:37:31;33.95;;;9.27;;
77466;SDS011;66564;42.482;25.548;2023-10-19T08:39:56;15.15;;;9.27;;
77466;SDS011;66564;42.482;25.548;2023-10-19T08:42:23;15.60;;;8.57;;
77466;SDS011;66564;42.482;25.548;2023-10-19T08:44:49;13.52;;;7.55;;
77466;SDS011;66564;42.482;25.548;2023-10-19T08:47:14;12.70;;;8.88;;
77466;SDS011;66564;42.482;25.548;2023-10-19T08:49:40;17.23;;;9.23;;
77466;SDS011;66564;42.482;25.548;2023-10-19T08:52:06;14.75;;;7.70;;
77466;SDS011;66564;42.482;25.548;2023-10-19T08:54:32;10.35;;;7.35;;
77466;SDS011;66564;42.482;25.548;2023-10-19T08:56:59;9.27;;;7.15;;
77466;SDS011;66564;42.482;25.548;2023-10-19T08:59:24;9.68;;;6.30;;
77466;SDS011;66564;42.482;25.548;2023-10-19T09:01:50;13.68;;;6.30;;
77466;SDS011;66564;42.482;25.548;2023-10-19T09:04:16;28.30;;;7.55;;
77466;SDS011;66564;42.482;25.548;2023-10-19T09:06:41;9.05;;;6.72;;
77466;SDS011;66564;42.482;25.548;2023-10-19T09:09:16;10.02;;;6.88;;
77466;SDS011;66564;42.482;25.548;2023-10-19T09:11:44;11.07;;;7.18;;
77466;SDS011;66564;42.482;25.548;2023-10-19T09:14:12;13.40;;;7.10;;
77466;SDS011;66564;42.482;25.548;2023-10-19T09:16:59;14.45;;;7.07;;
77466;SDS011;66564;42.482;25.548;2023-10-19T09:19:35;12.40;;;8.07;;
77466;SDS011;66564;42.482;25.548;2023-10-19T09:22:02;9.18;;;7.03;;
77466;SDS011;66564;42.482;25.548;2023-10-19T09:24:35;10.90;;;6.90;;
77466;SDS011;66564;42.482;25.548;2023-10-19T09:27:04;12.50;;;7.80;;
77466;SDS011;66564;42.482;25.548;2023-10-19T09:29:30;13.43;;;7.40;;
77466;SDS011;66564;42.482;25.548;2023-10-19T09:31:58;12.60;;;7.20;;
77466;SDS011;66564;42.482;25.548;2023-10-19T09:34:27;13.23;;;6.93;;
77466;SDS011;66564;42.482;25.548;2023-10-19T09:36:57;13.82;;;8.82;;
77466;SDS011;66564;42.482;25.548;2023-10-19T09:39:29;13.65;;;8.15;;
77466;SDS011;66564;42.482;25.548;2023-10-19T09:42:01;14.25;;;8.45;;
77466;SDS011;66564;42.482;25.548;2023-10-19T09:44:33;12.77;;;7.10;;
77466;SDS011;66564;42.482;25.548;2023-10-19T09:47:08;15.23;;;8.82;;
77466;SDS011;66564;42.482;25.548;2023-10-19T09:49:38;13.85;;;7.35;;
77466;SDS011;66564;42.482;25.548;2023-10-19T09:52:04;14.45;;;7.57;;
77466;SDS011;66564;42.482;25.548;2023-10-19T09:57:16;23.17;;;9.13;;
77466;SDS011;66564;42.482;25.548;2023-10-19T09:59:49;19.48;;;8.18;;
77466;SDS011;66564;42.482;25.548;2023-10-19T10:02:21;19.65;;;9.27;;
77466;SDS011;66564;42.482;25.548;2023-10-19T10:04:47;14.32;;;7.88;;
77466;SDS011;66564;42.482;25.548;2023-10-19T10:07:13;16.00;;;8.20;;
77466;SDS011;66564;42.482;25.548;2023-10-19T10:09:42;15.02;;;7.57;;
77466;SDS011;66564;42.482;25.548;2023-10-19T10:12:30;13.13;;;7.25;;
77466;SDS011;66564;42.482;25.548;2023-10-19T10:15:03;10.43;;;7.25;;
77466;SDS011;66564;42.482;25.548;2023-10-19T10:17:33;14.13;;;8.88;;
77466;SDS011;66564;42.482;25.548;2023-10-19T10:23:15;12.82;;;7.57;;
77466;SDS011;66564;42.482;25.548;2023-10-19T10:25:47;13.52;;;8.05;;
77466;SDS011;66564;42.482;25.548;2023-10-19T10:28:17;15.75;;;8.68;;
77466;SDS011;66564;42.482;25.548;2023-10-19T10:33:42;11.48;;;9.23;;
77466;SDS011;66564;42.482;25.548;2023-10-19T10:36:10;10.93;;;7.47;;
77466;SDS011;66564;42.482;25.548;2023-10-19T10:38:36;15.80;;;8.00;;
77466;SDS011;66564;42.482;25.548;2023-10-19T10:41:02;17.05;;;8.35;;
77466;SDS011;66564;42.482;25.548;2023-10-19T10:43:29;11.00;;;8.20;;
77466;SDS011;66564;42.482;25.548;2023-10-19T10:46:07;11.77;;;7.72;;
77466;SDS011;66564;42.482;25.548;2023-10-19T10:48:33;13.52;;;9.07;;
77466;SDS011;66564;42.482;25.548;2023-10-19T10:51:14;15.20;;;9.00;;
77466;SDS011;66564;42.482;25.548;2023-10-19T10:53:43;14.18;;;8.23;;
77466;SDS011;66564;42.482;25.548;2023-10-19T10:56:11;18.95;;;9.00;;
77466;SDS011;66564;42.482;25.548;2023-10-19T10:58:37;14.52;;;8.75;;
77466;SDS011;66564;42.482;25.548;2023-10-19T11:01:05;12.45;;;8.70;;
77466;SDS011;66564;42.482;25.548;2023-10-19T11:03:30;15.70;;;8.55;;
77466;SDS011;66564;42.482;25.548;2023-10-19T11:06:02;15.93;;;9.25;;
77466;SDS011;66564;42.482;25.548;2023-10-19T11:08:29;17.42;;;9.98;;
77466;SDS011;66564;42.482;25.548;2023-10-19T11:11:01;29.58;;;10.57;;
77466;SDS011;66564;42.482;25.548;2023-10-19T11:13:29;17.40;;;8.80;;
77466;SDS011;66564;42.482;25.548;2023-10-19T11:15:58;12.77;;;7.43;;
77466;SDS011;66564;42.482;25.548;2023-10-19T11:21:10;12.55;;;6.82;;
77466;SDS011;66564;42.482;25.548;2023-10-19T11:23:45;11.82;;;7.18;;
77466;SDS011;66564;42.482;25.548;2023-10-19T11:26:12;11.75;;;7.53;;
77466;SDS011;66564;42.482;25.548;2023-10-19T11:28:39;9.60;;;7.28;;
77466;SDS011;66564;42.482;25.548;2023-10-19T11:31:16;11.63;;;7.63;;
77466;SDS011;66564;42.482;25.548;2023-10-19T11:33:42;13.80;;;8.43;;
77466;SDS011;66564;42.482;25.548;2023-10-19T11:36:09;12.98;;;8.02;;
77466;SDS011;66564;42.482;25.548;2023-10-19T11:38:38;11.52;;;7.90;;
77466;SDS011;66564;42.482;25.548;2023-10-19T11:41:04;13.02;;;7.55;;
77466;SDS011;66564;42.482;25.548;2023-10-19T11:43:30;10.75;;;7.30;;
77466;SDS011;66564;42.482;25.548;2023-10-19T11:45:55;11.15;;;7.43;;
77466;SDS011;66564;42.482;25.548;2023-10-19T11:48:21;14.35;;;7.35;;
77466;SDS011;66564;42.482;25.548;2023-10-19T11:50:47;13.13;;;8.23;;
77466;SDS011;66564;42.482;25.548;2023-10-19T11:53:12;11.45;;;8.23;;
77466;SDS011;66564;42.482;25.548;2023-10-19T11:55:38;17.75;;;8.57;;
77466;SDS011;66564;42.482;25.548;2023-10-19T11:58:07;9.45;;;7.30;;
77466;SDS011;66564;42.482;25.548;2023-10-19T12:00:36;12.55;;;7.57;;
77466;SDS011;66564;42.482;25.548;2023-10-19T12:03:03;12.27;;;7.80;;
77466;SDS011;66564;42.482;25.548;2023-10-19T12:05:29;12.70;;;7.85;;
77466;SDS011;66564;42.482;25.548;2023-10-19T12:07:55;12.40;;;8.43;;
77466;SDS011;66564;42.482;25.548;2023-10-19T12:10:21;14.45;;;8.75;;
77466;SDS011;66564;42.482;25.548;2023-10-19T12:13:00;10.23;;;7.43;;
77466;SDS011;66564;42.482;25.548;2023-10-19T12:15:29;8.95;;;7.13;;
77466;SDS011;66564;42.482;25.548;2023-10-19T12:17:55;11.02;;;7.32;;
77466;SDS011;66564;42.482;25.548;2023-10-19T12:20:21;23.90;;;8.90;;
77466;SDS011;66564;42.482;25.548;2023-10-19T12:22:49;12.68;;;8.15;;
77466;SDS011;66564;42.482;25.548;2023-10-19T12:25:19;11.48;;;7.68;;
77466;SDS011;66564;42.482;25.548;2023-10-19T12:27:46;11.27;;;7.65;;
77466;SDS011;66564;42.482;25.548;2023-10-19T12:30:12;10.85;;;7.90;;
77466;SDS011;66564;42.482;25.548;2023-10-19T12:32:48;10.90;;;7.22;;
77466;SDS011;66564;42.482;25.548;2023-10-19T12:35:14;13.98;;;8.63;;
77466;SDS011;66564;42.482;25.548;2023-10-19T12:37:40;10.02;;;7.38;;
77466;SDS011;66564;42.482;25.548;2023-10-19T12:40:14;13.85;;;8.00;;
77466;SDS011;66564;42.482;25.548;2023-10-19T12:42:53;18.42;;;7.15;;
77466;SDS011;66564;42.482;25.548;2023-10-19T12:45:23;12.00;;;7.70;;
77466;SDS011;66564;42.482;25.548;2023-10-19T12:47:49;12.43;;;7.93;;
77466;SDS011;66564;42.482;25.548;2023-10-19T12:50:17;13.77;;;7.57;;
77466;SDS011;66564;42.482;25.548;2023-10-19T12:52:44;11.18;;;7.97;;
77466;SDS011;66564;42.482;25.548;2023-10-19T12:55:10;11.93;;;8.23;;
77466;SDS011;66564;42.482;25.548;2023-10-19T12:57:36;10.45;;;7.82;;
77466;SDS011;66564;42.482;25.548;2023-10-19T13:00:01;10.40;;;8.23;;
77466;SDS011;66564;42.482;25.548;2023-10-19T13:02:45;9.55;;;7.60;;
77466;SDS011;66564;42.482;25.548;2023-10-19T13:05:11;10.25;;;8.18;;
77466;SDS011;66564;42.482;25.548;2023-10-19T13:07:41;13.38;;;8.93;;
77466;SDS011;66564;42.482;25.548;2023-10-19T13:10:06;9.32;;;6.97;;
77466;SDS011;66564;42.482;25.548;2023-10-19T13:12:33;10.95;;;8.50;;
77466;SDS011;66564;42.482;25.548;2023-10-19T13:14:58;11.55;;;8.35;;
77466;SDS011;66564;42.482;25.548;2023-10-19T13:17:24;12.55;;;8.32;;
77466;SDS011;66564;42.482;25.548;2023-10-19T13:19:50;12.23;;;8.68;;
77466;SDS011;66564;42.482;25.548;2023-10-19T13:22:20;10.27;;;8.13;;
77466;SDS011;66564;42.482;25.548;2023-10-19T13:24:46;32.92;;;10.45;;
77466;SDS011;66564;42.482;25.548;2023-10-19T13:27:12;22.23;;;8.00;;
77466;SDS011;66564;42.482;25.548;2023-10-19T13:29:38;10.90;;;7.95;;
77466;SDS011;66564;42.482;25.548;2023-10-19T13:32:06;14.65;;;8.13;;
77466;SDS011;66564;42.482;25.548;2023-10-19T13:34:32;14.13;;;8.88;;
77466;SDS011;66564;42.482;25.548;2023-10-19T13:36:58;10.43;;;7.90;;
77466;SDS011;66564;42.482;25.548;2023-10-19T13:39:23;9.13;;;7.63;;
77466;SDS011;66564;42.482;25.548;2023-10-19T13:41:53;14.27;;;8.80;;
77466;SDS011;66564;42.482;25.548;2023-10-19T13:44:18;12.57;;;8.00;;
77466;SDS011;66564;42.482;25.548;2023-10-19T13:46:47;14.18;;;9.32;;
77466;SDS011;66564;42.482;25.548;2023-10-19T13:49:12;11.00;;;7.95;;
77466;SDS011;66564;42.482;25.548;2023-10-19T13:51:38;11.20;;;7.90;;
77466;SDS011;66564;42.482;25.548;2023-10-19T13:54:04;11.75;;;8.15;;
77466;SDS011;66564;42.482;25.548;2023-10-19T13:56:31;14.07;;;8.75;;
77466;SDS011;66564;42.482;25.548;2023-10-19T13:58:56;11.15;;;9.00;;
77466;SDS011;66564;42.482;25.548;2023-10-19T14:01:22;11.48;;;8.15;;
77466;SDS011;66564;42.482;25.548;2023-10-19T14:03:51;10.45;;;8.15;;
77466;SDS011;66564;42.482;25.548;2023-10-19T14:06:20;15.93;;;8.65;;
77466;SDS011;66564;42.482;25.548;2023-10-19T14:08:45;12.10;;;8.35;;
77466;SDS011;66564;42.482;25.548;2023-10-19T14:11:12;14.50;;;8.95;;
77466;SDS011;66564;42.482;25.548;2023-10-19T14:13:38;19.38;;;10.10;;
77466;SDS011;66564;42.482;25.548;2023-10-19T14:16:07;12.18;;;8.45;;
77466;SDS011;66564;42.482;25.548;2023-10-19T14:18:34;26.85;;;9.80;;
77466;SDS011;66564;42.482;25.548;2023-10-19T14:21:00;16.15;;;7.93;;
77466;SDS011;66564;42.482;25.548;2023-10-19T14:23:25;11.10;;;8.85;;
77466;SDS011;66564;42.482;25.548;2023-10-19T14:25:52;13.95;;;9.25;;
77466;SDS011;66564;42.482;25.548;2023-10-19T14:28:18;28.65;;;10.52;;
77466;SDS011;66564;42.482;25.548;2023-10-19T14:30:43;16.67;;;9.65;;
77466;SDS011;66564;42.482;25.548;2023-10-19T14:33:10;14.60;;;8.50;;
77466;SDS011;66564;42.482;25.548;2023-10-19T14:35:36;13.45;;;8.77;;
77466;SDS011;66564;42.482;25.548;2023-10-19T14:38:04;12.75;;;8.40;;
77466;SDS011;66564;42.482;25.548;2023-10-19T14:40:31;12.95;;;8.77;;
77466;SDS011;66564;42.482;25.548;2023-10-19T14:42:57;12.88;;;9.55;;
77466;SDS011;66564;42.482;25.548;2023-10-19T14:45:24;12.45;;;9.55;;
77466;SDS011;66564;42.482;25.548;2023-10-19T14:47:51;10.40;;;8.10;;
77466;SDS011;66564;42.482;25.548;2023-10-19T14:50:18;74.75;;;12.13;;
77466;SDS011;66564;42.482;25.548;2023-10-19T14:52:45;78.80;;;11.68;;